sensor_id;sensor_type;location;lat;lon;timestamp;temperature;humidity
23147;DHT22;11742;53.532;-1.478;2023-03-17T00:02:02;14.50;90.60
23147;DHT22;11742;53.532;-1.478;2023-03-17T00:04:46;14.60;90.70
23147;DHT22;11742;53.532;-1.478;2023-03-17T00:07:30;14.50;90.60
23147;DHT22;11742;53.532;-1.478;2023-03-17T00:10:16;14.50;90.60
23147;DHT22;11742;53.532;-1.478;2023-03-17T00:13:00;14.50;90.60
23147;DHT22;11742;53.532;-1.478;2023-03-17T00:15:45;14.50;90.60
23147;DHT22;11742;53.532;-1.478;2023-03-17T00:18:30;14.50;90.60
23147;DHT22;11742;53.532;-1.478;2023-03-17T00:21:19;14.50;90.60
23147;DHT22;11742;53.532;-1.478;2023-03-17T00:24:05;14.50;90.60
23147;DHT22;11742;53.532;-1.478;2023-03-17T00:26:49;14.50;90.60
23147;DHT22;11742;53.532;-1.478;2023-03-17T00:29:33;14.40;90.60
23147;DHT22;11742;53.532;-1.478;2023-03-17T00:32:18;14.40;90.60
23147;DHT22;11742;53.532;-1.478;2023-03-17T00:35:04;14.40;90.50
23147;DHT22;11742;53.532;-1.478;2023-03-17T00:37:58;14.40;90.60
23147;DHT22;11742;53.532;-1.478;2023-03-17T00:40:42;14.40;90.60
23147;DHT22;11742;53.532;-1.478;2023-03-17T00:43:27;14.40;90.60
23147;DHT22;11742;53.532;-1.478;2023-03-17T00:46:12;14.40;90.50
23147;DHT22;11742;53.532;-1.478;2023-03-17T00:48:57;14.40;90.60
23147;DHT22;11742;53.532;-1.478;2023-03-17T00:51:41;14.40;90.50
23147;DHT22;11742;53.532;-1.478;2023-03-17T00:54:25;14.40;90.50
23147;DHT22;11742;53.532;-1.478;2023-03-17T00:57:10;14.30;90.50
23147;DHT22;11742;53.532;-1.478;2023-03-17T00:59:54;14.40;90.50
23147;DHT22;11742;53.532;-1.478;2023-03-17T01:02:38;14.30;90.50
23147;DHT22;11742;53.532;-1.478;2023-03-17T01:05:23;14.30;90.50
23147;DHT22;11742;53.532;-1.478;2023-03-17T01:08:08;14.30;90.50
23147;DHT22;11742;53.532;-1.478;2023-03-17T01:10:52;14.30;90.80
23147;DHT22;11742;53.532;-1.478;2023-03-17T01:13:36;14.30;90.50
23147;DHT22;11742;53.532;-1.478;2023-03-17T01:16:20;14.30;90.40
23147;DHT22;11742;53.532;-1.478;2023-03-17T01:19:05;14.30;90.40
23147;DHT22;11742;53.532;-1.478;2023-03-17T01:21:49;14.20;90.50
23147;DHT22;11742;53.532;-1.478;2023-03-17T01:24:33;14.20;90.40
23147;DHT22;11742;53.532;-1.478;2023-03-17T01:27:17;14.20;90.40
23147;DHT22;11742;53.532;-1.478;2023-03-17T01:30:05;14.20;90.40
23147;DHT22;11742;53.532;-1.478;2023-03-17T01:32:50;14.20;90.40
23147;DHT22;11742;53.532;-1.478;2023-03-17T01:35:35;14.20;90.40
23147;DHT22;11742;53.532;-1.478;2023-03-17T01:38:19;14.20;90.40
23147;DHT22;11742;53.532;-1.478;2023-03-17T01:41:03;14.20;90.40
23147;DHT22;11742;53.532;-1.478;2023-03-17T01:43:48;14.20;90.40
23147;DHT22;11742;53.532;-1.478;2023-03-17T01:46:33;14.20;90.40
23147;DHT22;11742;53.532;-1.478;2023-03-17T01:52:20;14.10;90.40
23147;DHT22;11742;53.532;-1.478;2023-03-17T01:55:07;14.10;90.40
23147;DHT22;11742;53.532;-1.478;2023-03-17T01:57:52;14.10;90.40
23147;DHT22;11742;53.532;-1.478;2023-03-17T02:00:37;14.10;90.40
23147;DHT22;11742;53.532;-1.478;2023-03-17T02:03:22;14.10;90.40
23147;DHT22;11742;53.532;-1.478;2023-03-17T02:06:06;14.10;90.50
23147;DHT22;11742;53.532;-1.478;2023-03-17T02:08:51;14.10;90.50
23147;DHT22;11742;53.532;-1.478;2023-03-17T02:11:35;14.10;90.50
23147;DHT22;11742;53.532;-1.478;2023-03-17T02:14:21;14.00;90.40
23147;DHT22;11742;53.532;-1.478;2023-03-17T02:17:05;14.00;90.40
23147;DHT22;11742;53.532;-1.478;2023-03-17T02:19:49;14.00;90.40
23147;DHT22;11742;53.532;-1.478;2023-03-17T02:22:33;14.00;90.40
23147;DHT22;11742;53.532;-1.478;2023-03-17T02:25:18;14.00;90.40
23147;DHT22;11742;53.532;-1.478;2023-03-17T02:28:07;14.00;90.40
23147;DHT22;11742;53.532;-1.478;2023-03-17T02:30:51;14.00;90.40
23147;DHT22;11742;53.532;-1.478;2023-03-17T02:33:36;14.00;90.40
23147;DHT22;11742;53.532;-1.478;2023-03-17T02:36:20;14.00;90.40
23147;DHT22;11742;53.532;-1.478;2023-03-17T02:39:05;14.00;90.40
23147;DHT22;11742;53.532;-1.478;2023-03-17T02:41:49;14.00;90.40
23147;DHT22;11742;53.532;-1.478;2023-03-17T02:44:33;13.90;90.40
23147;DHT22;11742;53.532;-1.478;2023-03-17T02:47:17;13.90;90.40
23147;DHT22;11742;53.532;-1.478;2023-03-17T02:50:02;13.90;90.40
23147;DHT22;11742;53.532;-1.478;2023-03-17T02:52:48;13.90;90.30
23147;DHT22;11742;53.532;-1.478;2023-03-17T02:55:32;13.90;90.30
23147;DHT22;11742;53.532;-1.478;2023-03-17T02:58:16;13.90;90.40
23147;DHT22;11742;53.532;-1.478;2023-03-17T03:01:01;13.90;90.30
23147;DHT22;11742;53.532;-1.478;2023-03-17T03:03:45;13.90;90.30
23147;DHT22;11742;53.532;-1.478;2023-03-17T03:06:29;13.90;90.30
23147;DHT22;11742;53.532;-1.478;2023-03-17T03:09:13;13.90;90.30
23147;DHT22;11742;53.532;-1.478;2023-03-17T03:11:58;13.90;90.30
23147;DHT22;11742;53.532;-1.478;2023-03-17T03:14:42;13.80;90.30
23147;DHT22;11742;53.532;-1.478;2023-03-17T03:17:26;13.80;90.30
23147;DHT22;11742;53.532;-1.478;2023-03-17T03:20:11;13.80;90.40
23147;DHT22;11742;53.532;-1.478;2023-03-17T03:22:55;13.80;90.30
23147;DHT22;11742;53.532;-1.478;2023-03-17T03:25:39;13.80;90.30
23147;DHT22;11742;53.532;-1.478;2023-03-17T03:28:23;13.80;90.40
23147;DHT22;11742;53.532;-1.478;2023-03-17T03:31:07;13.80;90.40
23147;DHT22;11742;53.532;-1.478;2023-03-17T03:33:52;13.80;90.30
23147;DHT22;11742;53.532;-1.478;2023-03-17T03:36:36;13.80;90.40
23147;DHT22;11742;53.532;-1.478;2023-03-17T03:39:20;13.70;90.30
23147;DHT22;11742;53.532;-1.478;2023-03-17T05:53:28;13.30;90.20
23147;DHT22;11742;53.532;-1.478;2023-03-17T05:56:13;13.30;90.20
23147;DHT22;11742;53.532;-1.478;2023-03-17T05:58:58;13.30;90.20
23147;DHT22;11742;53.532;-1.478;2023-03-17T06:01:43;13.30;90.20
23147;DHT22;11742;53.532;-1.478;2023-03-17T06:04:27;13.30;90.20
23147;DHT22;11742;53.532;-1.478;2023-03-17T06:07:11;13.30;90.20
23147;DHT22;11742;53.532;-1.478;2023-03-17T06:09:56;13.30;90.20
23147;DHT22;11742;53.532;-1.478;2023-03-17T06:12:40;13.30;90.30
23147;DHT22;11742;53.532;-1.478;2023-03-17T06:15:25;13.30;90.20
23147;DHT22;11742;53.532;-1.478;2023-03-17T06:18:09;13.30;90.30
23147;DHT22;11742;53.532;-1.478;2023-03-17T06:20:53;13.30;90.20
23147;DHT22;11742;53.532;-1.478;2023-03-17T06:23:38;13.30;90.30
23147;DHT22;11742;53.532;-1.478;2023-03-17T06:26:22;13.30;90.20
23147;DHT22;11742;53.532;-1.478;2023-03-17T06:29:06;13.30;90.20
23147;DHT22;11742;53.532;-1.478;2023-03-17T06:31:54;13.20;90.20
23147;DHT22;11742;53.532;-1.478;2023-03-17T06:34:38;13.20;90.20
23147;DHT22;11742;53.532;-1.478;2023-03-17T06:37:24;13.20;90.20
23147;DHT22;11742;53.532;-1.478;2023-03-17T06:40:08;13.30;90.20
23147;DHT22;11742;53.532;-1.478;2023-03-17T06:42:53;13.20;90.20
23147;DHT22;11742;53.532;-1.478;2023-03-17T06:45:37;13.20;90.20
23147;DHT22;11742;53.532;-1.478;2023-03-17T06:48:21;13.20;90.20
23147;DHT22;11742;53.532;-1.478;2023-03-17T06:51:06;13.20;90.30
23147;DHT22;11742;53.532;-1.478;2023-03-17T06:53:50;13.20;90.20
23147;DHT22;11742;53.532;-1.478;2023-03-17T06:56:34;13.20;90.20
23147;DHT22;11742;53.532;-1.478;2023-03-17T06:59:19;13.20;90.30
23147;DHT22;11742;53.532;-1.478;2023-03-17T07:02:03;13.20;90.30
23147;DHT22;11742;53.532;-1.478;2023-03-17T07:04:48;13.20;90.30
23147;DHT22;11742;53.532;-1.478;2023-03-17T07:07:32;13.20;90.30
23147;DHT22;11742;53.532;-1.478;2023-03-17T07:10:18;13.20;90.30
23147;DHT22;11742;53.532;-1.478;2023-03-17T07:13:02;13.20;90.40
23147;DHT22;11742;53.532;-1.478;2023-03-17T07:15:48;13.20;90.40
23147;DHT22;11742;53.532;-1.478;2023-03-17T07:18:33;13.20;90.40
23147;DHT22;11742;53.532;-1.478;2023-03-17T07:21:17;13.20;90.50
23147;DHT22;11742;53.532;-1.478;2023-03-17T07:24:01;13.20;90.50
23147;DHT22;11742;53.532;-1.478;2023-03-17T07:26:47;13.20;90.50
23147;DHT22;11742;53.532;-1.478;2023-03-17T07:29:32;13.20;90.60
23147;DHT22;11742;53.532;-1.478;2023-03-17T07:32:17;13.20;90.70
23147;DHT22;11742;53.532;-1.478;2023-03-17T07:35:02;13.30;90.80
23147;DHT22;11742;53.532;-1.478;2023-03-17T07:37:48;13.30;90.90
23147;DHT22;11742;53.532;-1.478;2023-03-17T07:40:32;13.30;91.20
23147;DHT22;11742;53.532;-1.478;2023-03-17T07:43:17;13.30;90.90
23147;DHT22;11742;53.532;-1.478;2023-03-17T07:46:01;13.30;90.90
23147;DHT22;11742;53.532;-1.478;2023-03-17T07:48:46;13.30;90.90
23147;DHT22;11742;53.532;-1.478;2023-03-17T07:51:30;13.30;90.90
23147;DHT22;11742;53.532;-1.478;2023-03-17T07:54:14;13.40;90.90
23147;DHT22;11742;53.532;-1.478;2023-03-17T07:56:58;13.40;91.00
23147;DHT22;11742;53.532;-1.478;2023-03-17T07:59:43;13.40;91.00
23147;DHT22;11742;53.532;-1.478;2023-03-17T08:02:27;13.40;91.00
23147;DHT22;11742;53.532;-1.478;2023-03-17T08:05:12;13.50;91.00
23147;DHT22;11742;53.532;-1.478;2023-03-17T08:07:57;13.50;91.00
23147;DHT22;11742;53.532;-1.478;2023-03-17T08:10:42;13.50;91.10
23147;DHT22;11742;53.532;-1.478;2023-03-17T08:13:26;13.50;91.30
23147;DHT22;11742;53.532;-1.478;2023-03-17T08:16:10;13.60;91.50
23147;DHT22;11742;53.532;-1.478;2023-03-17T08:18:55;13.60;91.50
23147;DHT22;11742;53.532;-1.478;2023-03-17T08:21:41;13.70;91.50
23147;DHT22;11742;53.532;-1.478;2023-03-17T08:24:25;13.70;91.40
23147;DHT22;11742;53.532;-1.478;2023-03-17T08:27:09;13.70;91.50
23147;DHT22;11742;53.532;-1.478;2023-03-17T08:29:54;13.70;91.50
23147;DHT22;11742;53.532;-1.478;2023-03-17T08:32:38;13.80;91.60
23147;DHT22;11742;53.532;-1.478;2023-03-17T08:35:23;13.80;91.60
23147;DHT22;11742;53.532;-1.478;2023-03-17T08:38:08;13.80;91.60
23147;DHT22;11742;53.532;-1.478;2023-03-17T08:40:52;13.90;91.60
23147;DHT22;11742;53.532;-1.478;2023-03-17T08:43:37;13.90;91.50
23147;DHT22;11742;53.532;-1.478;2023-03-17T08:46:25;14.00;91.60
23147;DHT22;11742;53.532;-1.478;2023-03-17T08:49:10;14.00;91.60
23147;DHT22;11742;53.532;-1.478;2023-03-17T08:51:55;14.00;91.50
23147;DHT22;11742;53.532;-1.478;2023-03-17T08:54:39;14.10;91.50
23147;DHT22;11742;53.532;-1.478;2023-03-17T08:57:24;14.10;91.50
23147;DHT22;11742;53.532;-1.478;2023-03-17T09:00:08;14.20;91.60
23147;DHT22;11742;53.532;-1.478;2023-03-17T09:02:54;14.20;91.60
23147;DHT22;11742;53.532;-1.478;2023-03-17T09:05:40;14.20;91.60
23147;DHT22;11742;53.532;-1.478;2023-03-17T09:08:25;14.30;91.60
23147;DHT22;11742;53.532;-1.478;2023-03-17T09:11:10;14.30;91.60
23147;DHT22;11742;53.532;-1.478;2023-03-17T09:13:56;14.40;91.60
23147;DHT22;11742;53.532;-1.478;2023-03-17T09:16:40;14.40;91.60
23147;DHT22;11742;53.532;-1.478;2023-03-17T09:19:25;14.40;91.60
23147;DHT22;11742;53.532;-1.478;2023-03-17T09:22:13;14.50;91.70
23147;DHT22;11742;53.532;-1.478;2023-03-17T09:24:57;14.50;91.70
23147;DHT22;11742;53.532;-1.478;2023-03-17T09:27:42;14.50;91.70
23147;DHT22;11742;53.532;-1.478;2023-03-17T09:30:26;14.60;91.80
23147;DHT22;11742;53.532;-1.478;2023-03-17T09:33:11;14.60;91.80
23147;DHT22;11742;53.532;-1.478;2023-03-17T09:35:56;14.60;91.80
23147;DHT22;11742;53.532;-1.478;2023-03-17T09:38:40;14.70;91.70
23147;DHT22;11742;53.532;-1.478;2023-03-17T09:41:47;14.70;91.70
23147;DHT22;11742;53.532;-1.478;2023-03-17T09:44:44;14.70;91.70
23147;DHT22;11742;53.532;-1.478;2023-03-17T09:50:27;14.90;92.10
23147;DHT22;11742;53.532;-1.478;2023-03-17T09:53:24;14.90;92.30
23147;DHT22;11742;53.532;-1.478;2023-03-17T09:56:11;15.00;92.50
23147;DHT22;11742;53.532;-1.478;2023-03-17T09:58:57;15.10;92.70
23147;DHT22;11742;53.532;-1.478;2023-03-17T10:01:42;15.20;92.80
23147;DHT22;11742;53.532;-1.478;2023-03-17T10:04:26;15.30;93.00
23147;DHT22;11742;53.532;-1.478;2023-03-17T10:07:12;15.40;93.50
23147;DHT22;11742;53.532;-1.478;2023-03-17T10:10:12;15.50;93.20
23147;DHT22;11742;53.532;-1.478;2023-03-17T10:13:06;15.60;93.20
23147;DHT22;11742;53.532;-1.478;2023-03-17T10:18:57;15.80;93.30
23147;DHT22;11742;53.532;-1.478;2023-03-17T10:21:47;15.90;93.30
23147;DHT22;11742;53.532;-1.478;2023-03-17T10:24:34;16.00;93.20
23147;DHT22;11742;53.532;-1.478;2023-03-17T10:27:22;16.00;93.20
23147;DHT22;11742;53.532;-1.478;2023-03-17T10:30:14;16.10;93.10
23147;DHT22;11742;53.532;-1.478;2023-03-17T10:32:59;16.20;93.00
23147;DHT22;11742;53.532;-1.478;2023-03-17T10:35:43;16.30;93.00
23147;DHT22;11742;53.532;-1.478;2023-03-17T10:38:27;16.30;93.00
23147;DHT22;11742;53.532;-1.478;2023-03-17T10:41:12;16.30;93.00
23147;DHT22;11742;53.532;-1.478;2023-03-17T10:43:57;16.50;93.00
23147;DHT22;11742;53.532;-1.478;2023-03-17T10:46:44;16.50;92.90
23147;DHT22;11742;53.532;-1.478;2023-03-17T10:49:35;16.60;92.90
23147;DHT22;11742;53.532;-1.478;2023-03-17T10:52:29;16.60;92.70
23147;DHT22;11742;53.532;-1.478;2023-03-17T10:55:16;16.70;92.70
23147;DHT22;11742;53.532;-1.478;2023-03-17T10:58:04;16.70;92.60
23147;DHT22;11742;53.532;-1.478;2023-03-17T11:00:54;16.80;92.60
23147;DHT22;11742;53.532;-1.478;2023-03-17T11:03:39;16.80;92.60
23147;DHT22;11742;53.532;-1.478;2023-03-17T11:06:31;16.90;92.60
23147;DHT22;11742;53.532;-1.478;2023-03-17T11:09:17;16.90;92.50
23147;DHT22;11742;53.532;-1.478;2023-03-17T11:12:06;17.00;92.60
23147;DHT22;11742;53.532;-1.478;2023-03-17T11:15:02;17.00;92.60
23147;DHT22;11742;53.532;-1.478;2023-03-17T11:23:34;17.20;92.70
23147;DHT22;11742;53.532;-1.478;2023-03-17T11:26:26;17.30;92.80
23147;DHT22;11742;53.532;-1.478;2023-03-17T11:44:02;17.90;92.90
23147;DHT22;11742;53.532;-1.478;2023-03-17T11:46:45;18.00;92.90
23147;DHT22;11742;53.532;-1.478;2023-03-17T11:49:35;18.10;92.80
23147;DHT22;11742;53.532;-1.478;2023-03-17T11:52:23;18.20;92.70
23147;DHT22;11742;53.532;-1.478;2023-03-17T11:55:23;18.20;92.60
23147;DHT22;11742;53.532;-1.478;2023-03-17T11:58:13;18.30;92.60
23147;DHT22;11742;53.532;-1.478;2023-03-17T12:00:59;18.40;92.50
23147;DHT22;11742;53.532;-1.478;2023-03-17T12:04:16;18.40;92.40
23147;DHT22;11742;53.532;-1.478;2023-03-17T12:07:01;18.50;92.40
23147;DHT22;11742;53.532;-1.478;2023-03-17T12:12:52;18.60;92.20
23147;DHT22;11742;53.532;-1.478;2023-03-17T12:18:33;18.70;92.10
23147;DHT22;11742;53.532;-1.478;2023-03-17T12:24:15;18.70;91.90
23147;DHT22;11742;53.532;-1.478;2023-03-17T12:27:02;18.70;91.80
23147;DHT22;11742;53.532;-1.478;2023-03-17T12:29:52;18.80;91.80
23147;DHT22;11742;53.532;-1.478;2023-03-17T12:32:50;18.80;91.60
23147;DHT22;11742;53.532;-1.478;2023-03-17T12:35:36;18.80;91.30
23147;DHT22;11742;53.532;-1.478;2023-03-17T12:38:24;18.80;91.20
23147;DHT22;11742;53.532;-1.478;2023-03-17T12:55:52;18.90;90.70
23147;DHT22;11742;53.532;-1.478;2023-03-17T12:58:39;19.00;90.50
23147;DHT22;11742;53.532;-1.478;2023-03-17T13:01:31;19.00;90.50
23147;DHT22;11742;53.532;-1.478;2023-03-17T13:04:25;19.00;89.90
23147;DHT22;11742;53.532;-1.478;2023-03-17T13:07:13;19.00;88.90
23147;DHT22;11742;53.532;-1.478;2023-03-17T13:18:26;19.00;90.10
23147;DHT22;11742;53.532;-1.478;2023-03-17T13:21:15;19.00;90.20
23147;DHT22;11742;53.532;-1.478;2023-03-17T13:24:19;19.10;90.10
23147;DHT22;11742;53.532;-1.478;2023-03-17T13:27:08;19.10;90.30
23147;DHT22;11742;53.532;-1.478;2023-03-17T13:29:53;19.20;90.40
23147;DHT22;11742;53.532;-1.478;2023-03-17T13:32:37;19.20;90.40
23147;DHT22;11742;53.532;-1.478;2023-03-17T13:35:24;19.20;90.50
23147;DHT22;11742;53.532;-1.478;2023-03-17T13:41:07;19.30;90.30
23147;DHT22;11742;53.532;-1.478;2023-03-17T13:50:22;19.40;89.90
23147;DHT22;11742;53.532;-1.478;2023-03-17T13:53:08;19.40;89.80
23147;DHT22;11742;53.532;-1.478;2023-03-17T13:56:08;19.50;89.80
23147;DHT22;11742;53.532;-1.478;2023-03-17T14:01:51;19.50;89.10
23147;DHT22;11742;53.532;-1.478;2023-03-17T14:04:56;19.50;88.70
23147;DHT22;11742;53.532;-1.478;2023-03-17T14:10:53;19.50;88.40
23147;DHT22;11742;53.532;-1.478;2023-03-17T14:13:43;19.60;88.60
23147;DHT22;11742;53.532;-1.478;2023-03-17T14:16:30;19.60;88.80
23147;DHT22;11742;53.532;-1.478;2023-03-17T14:19:19;19.60;88.80
23147;DHT22;11742;53.532;-1.478;2023-03-17T14:22:17;19.60;88.30
23147;DHT22;11742;53.532;-1.478;2023-03-17T14:25:01;19.60;87.20
23147;DHT22;11742;53.532;-1.478;2023-03-17T14:27:47;19.70;86.50
23147;DHT22;11742;53.532;-1.478;2023-03-17T14:30:32;19.70;86.80
23147;DHT22;11742;53.532;-1.478;2023-03-17T14:33:22;19.70;86.90
23147;DHT22;11742;53.532;-1.478;2023-03-17T14:36:08;19.70;87.40
23147;DHT22;11742;53.532;-1.478;2023-03-17T14:38:55;19.70;87.00
23147;DHT22;11742;53.532;-1.478;2023-03-17T14:41:39;19.80;88.00
23147;DHT22;11742;53.532;-1.478;2023-03-17T14:44:24;19.80;87.30
23147;DHT22;11742;53.532;-1.478;2023-03-17T14:47:12;19.80;87.00
23147;DHT22;11742;53.532;-1.478;2023-03-17T14:49:57;19.80;86.60
23147;DHT22;11742;53.532;-1.478;2023-03-17T14:52:44;19.80;87.00
23147;DHT22;11742;53.532;-1.478;2023-03-17T14:55:36;19.80;86.70
23147;DHT22;11742;53.532;-1.478;2023-03-17T14:58:25;19.80;86.60
23147;DHT22;11742;53.532;-1.478;2023-03-17T15:06:53;19.90;86.30
23147;DHT22;11742;53.532;-1.478;2023-03-17T15:09:38;19.90;86.80
23147;DHT22;11742;53.532;-1.478;2023-03-17T15:12:23;19.90;86.70
23147;DHT22;11742;53.532;-1.478;2023-03-17T15:15:20;19.90;86.30
23147;DHT22;11742;53.532;-1.478;2023-03-17T15:18:06;19.90;85.80
23147;DHT22;11742;53.532;-1.478;2023-03-17T15:20:53;20.00;85.70
23147;DHT22;11742;53.532;-1.478;2023-03-17T15:23:38;20.00;85.60
23147;DHT22;11742;53.532;-1.478;2023-03-17T15:26:27;20.00;85.60
23147;DHT22;11742;53.532;-1.478;2023-03-17T15:29:13;20.00;85.50
23147;DHT22;11742;53.532;-1.478;2023-03-17T15:32:01;20.00;85.40
23147;DHT22;11742;53.532;-1.478;2023-03-17T15:34:47;20.00;85.30
23147;DHT22;11742;53.532;-1.478;2023-03-17T15:37:32;20.00;85.30
23147;DHT22;11742;53.532;-1.478;2023-03-17T15:40:17;20.00;85.50
23147;DHT22;11742;53.532;-1.478;2023-03-17T15:43:01;20.00;85.70
23147;DHT22;11742;53.532;-1.478;2023-03-17T15:45:46;20.00;85.90
23147;DHT22;11742;53.532;-1.478;2023-03-17T15:48:31;20.00;85.70
23147;DHT22;11742;53.532;-1.478;2023-03-17T15:51:18;20.00;85.90
23147;DHT22;11742;53.532;-1.478;2023-03-17T15:54:02;20.10;86.00
23147;DHT22;11742;53.532;-1.478;2023-03-17T15:56:46;20.10;85.80
23147;DHT22;11742;53.532;-1.478;2023-03-17T15:59:30;20.10;85.80
23147;DHT22;11742;53.532;-1.478;2023-03-17T16:02:25;20.10;85.70
23147;DHT22;11742;53.532;-1.478;2023-03-17T16:05:15;20.10;85.90
23147;DHT22;11742;53.532;-1.478;2023-03-17T16:08:00;20.10;85.80
23147;DHT22;11742;53.532;-1.478;2023-03-17T16:10:44;20.10;85.80
23147;DHT22;11742;53.532;-1.478;2023-03-17T16:13:29;20.20;85.60
23147;DHT22;11742;53.532;-1.478;2023-03-17T16:16:18;20.20;85.30
23147;DHT22;11742;53.532;-1.478;2023-03-17T16:19:04;20.20;85.30
23147;DHT22;11742;53.532;-1.478;2023-03-17T16:21:49;20.20;85.30
23147;DHT22;11742;53.532;-1.478;2023-03-17T16:24:34;20.20;85.40
23147;DHT22;11742;53.532;-1.478;2023-03-17T16:27:18;20.20;85.30
23147;DHT22;11742;53.532;-1.478;2023-03-17T16:30:02;20.20;85.20
23147;DHT22;11742;53.532;-1.478;2023-03-17T16:32:47;20.20;85.30
23147;DHT22;11742;53.532;-1.478;2023-03-17T16:35:31;20.20;85.10
23147;DHT22;11742;53.532;-1.478;2023-03-17T16:38:16;20.20;84.70
23147;DHT22;11742;53.532;-1.478;2023-03-17T16:41:05;20.20;84.70
23147;DHT22;11742;53.532;-1.478;2023-03-17T16:43:51;20.20;84.70
23147;DHT22;11742;53.532;-1.478;2023-03-17T16:46:35;20.20;84.50
23147;DHT22;11742;53.532;-1.478;2023-03-17T16:49:21;20.20;84.20
23147;DHT22;11742;53.532;-1.478;2023-03-17T16:52:05;20.20;84.10
23147;DHT22;11742;53.532;-1.478;2023-03-17T16:54:50;20.20;84.00
23147;DHT22;11742;53.532;-1.478;2023-03-17T16:57:35;20.10;84.00
23147;DHT22;11742;53.532;-1.478;2023-03-17T17:00:20;20.10;84.00
23147;DHT22;11742;53.532;-1.478;2023-03-17T17:03:06;20.10;84.30
23147;DHT22;11742;53.532;-1.478;2023-03-17T17:05:50;20.10;84.50
23147;DHT22;11742;53.532;-1.478;2023-03-17T17:08:34;20.10;84.60
23147;DHT22;11742;53.532;-1.478;2023-03-17T17:11:19;20.10;84.40
23147;DHT22;11742;53.532;-1.478;2023-03-17T17:14:03;20.10;84.30
23147;DHT22;11742;53.532;-1.478;2023-03-17T17:16:47;20.10;84.30
23147;DHT22;11742;53.532;-1.478;2023-03-17T17:19:31;20.10;77.00
23147;DHT22;11742;53.532;-1.478;2023-03-17T17:22:16;19.90;72.60
23147;DHT22;11742;53.532;-1.478;2023-03-17T17:25:00;19.60;72.70
23147;DHT22;11742;53.532;-1.478;2023-03-17T17:27:44;19.20;73.50
23147;DHT22;11742;53.532;-1.478;2023-03-17T17:30:29;18.90;73.80
23147;DHT22;11742;53.532;-1.478;2023-03-17T17:33:14;18.60;73.70
23147;DHT22;11742;53.532;-1.478;2023-03-17T17:35:59;18.30;75.60
23147;DHT22;11742;53.532;-1.478;2023-03-17T17:38:43;18.10;78.40
23147;DHT22;11742;53.532;-1.478;2023-03-17T17:41:27;18.00;80.10
23147;DHT22;11742;53.532;-1.478;2023-03-17T17:44:11;17.90;81.00
23147;DHT22;11742;53.532;-1.478;2023-03-17T17:46:56;18.00;81.70
23147;DHT22;11742;53.532;-1.478;2023-03-17T17:49:40;18.00;81.90
23147;DHT22;11742;53.532;-1.478;2023-03-17T17:52:26;18.00;81.90
23147;DHT22;11742;53.532;-1.478;2023-03-17T17:55:10;18.10;82.00
23147;DHT22;11742;53.532;-1.478;2023-03-17T17:57:54;18.10;81.90
23147;DHT22;11742;53.532;-1.478;2023-03-17T18:00:39;18.10;81.90
23147;DHT22;11742;53.532;-1.478;2023-03-17T18:03:23;18.10;81.80
23147;DHT22;11742;53.532;-1.478;2023-03-17T18:06:08;18.20;81.80
23147;DHT22;11742;53.532;-1.478;2023-03-17T18:08:52;18.20;81.70
23147;DHT22;11742;53.532;-1.478;2023-03-17T18:11:38;18.20;81.60
23147;DHT22;11742;53.532;-1.478;2023-03-17T18:14:23;18.20;81.60
23147;DHT22;11742;53.532;-1.478;2023-03-17T18:17:07;18.20;81.50
23147;DHT22;11742;53.532;-1.478;2023-03-17T18:19:51;18.20;81.40
23147;DHT22;11742;53.532;-1.478;2023-03-17T18:22:36;18.20;81.30
23147;DHT22;11742;53.532;-1.478;2023-03-17T18:25:20;18.10;81.10
23147;DHT22;11742;53.532;-1.478;2023-03-17T18:28:05;18.10;81.10
23147;DHT22;11742;53.532;-1.478;2023-03-17T18:30:49;18.10;81.10
23147;DHT22;11742;53.532;-1.478;2023-03-17T18:33:34;18.10;81.10
23147;DHT22;11742;53.532;-1.478;2023-03-17T18:36:18;18.10;81.30
23147;DHT22;11742;53.532;-1.478;2023-03-17T18:39:03;18.10;81.70
23147;DHT22;11742;53.532;-1.478;2023-03-17T18:41:47;18.10;81.60
23147;DHT22;11742;53.532;-1.478;2023-03-17T18:44:32;18.10;81.60
23147;DHT22;11742;53.532;-1.478;2023-03-17T18:47:17;18.00;81.80
23147;DHT22;11742;53.532;-1.478;2023-03-17T18:50:01;18.00;81.60
23147;DHT22;11742;53.532;-1.478;2023-03-17T18:52:45;18.00;81.60
23147;DHT22;11742;53.532;-1.478;2023-03-17T18:55:29;18.00;81.60
23147;DHT22;11742;53.532;-1.478;2023-03-17T18:58:14;18.00;81.60
23147;DHT22;11742;53.532;-1.478;2023-03-17T19:00:58;18.00;81.50
23147;DHT22;11742;53.532;-1.478;2023-03-17T19:03:43;17.90;81.30
23147;DHT22;11742;53.532;-1.478;2023-03-17T19:06:27;17.90;81.50
23147;DHT22;11742;53.532;-1.478;2023-03-17T19:09:11;17.90;81.50
23147;DHT22;11742;53.532;-1.478;2023-03-17T19:11:55;17.80;81.80
23147;DHT22;11742;53.532;-1.478;2023-03-17T19:14:40;17.80;82.10
23147;DHT22;11742;53.532;-1.478;2023-03-17T19:17:24;17.80;82.10
23147;DHT22;11742;53.532;-1.478;2023-03-17T19:20:09;17.80;82.00
23147;DHT22;11742;53.532;-1.478;2023-03-17T19:22:53;17.70;81.80
23147;DHT22;11742;53.532;-1.478;2023-03-17T19:25:37;17.70;81.70
23147;DHT22;11742;53.532;-1.478;2023-03-17T19:28:22;17.70;81.90
23147;DHT22;11742;53.532;-1.478;2023-03-17T19:31:06;17.70;81.80
23147;DHT22;11742;53.532;-1.478;2023-03-17T19:33:50;17.70;81.70
23147;DHT22;11742;53.532;-1.478;2023-03-17T19:36:35;17.60;81.70
23147;DHT22;11742;53.532;-1.478;2023-03-17T19:39:22;17.60;81.80
23147;DHT22;11742;53.532;-1.478;2023-03-17T19:42:07;17.50;81.70
23147;DHT22;11742;53.532;-1.478;2023-03-17T19:44:51;17.50;81.80
23147;DHT22;11742;53.532;-1.478;2023-03-17T19:47:35;17.50;81.80
23147;DHT22;11742;53.532;-1.478;2023-03-17T19:50:20;17.40;81.70
23147;DHT22;11742;53.532;-1.478;2023-03-17T19:53:04;17.40;81.80
23147;DHT22;11742;53.532;-1.478;2023-03-17T19:55:49;17.40;81.70
23147;DHT22;11742;53.532;-1.478;2023-03-17T19:58:33;17.40;81.70
23147;DHT22;11742;53.532;-1.478;2023-03-17T20:01:17;17.30;81.70
23147;DHT22;11742;53.532;-1.478;2023-03-17T20:04:02;17.30;81.80
23147;DHT22;11742;53.532;-1.478;2023-03-17T20:06:46;17.30;81.90
23147;DHT22;11742;53.532;-1.478;2023-03-17T20:09:31;17.20;81.90
23147;DHT22;11742;53.532;-1.478;2023-03-17T20:12:15;17.20;81.90
23147;DHT22;11742;53.532;-1.478;2023-03-17T20:14:59;17.20;81.90
23147;DHT22;11742;53.532;-1.478;2023-03-17T20:17:44;17.20;82.00
23147;DHT22;11742;53.532;-1.478;2023-03-17T20:20:28;17.10;82.00
23147;DHT22;11742;53.532;-1.478;2023-03-17T20:23:14;17.10;82.00
23147;DHT22;11742;53.532;-1.478;2023-03-17T20:25:59;17.10;82.00
23147;DHT22;11742;53.532;-1.478;2023-03-17T20:28:44;17.00;82.00
23147;DHT22;11742;53.532;-1.478;2023-03-17T20:31:29;17.00;82.00
23147;DHT22;11742;53.532;-1.478;2023-03-17T20:34:13;17.00;82.10
23147;DHT22;11742;53.532;-1.478;2023-03-17T20:36:58;16.90;82.00
23147;DHT22;11742;53.532;-1.478;2023-03-17T20:39:42;16.90;82.10
23147;DHT22;11742;53.532;-1.478;2023-03-17T20:42:26;16.90;82.20
23147;DHT22;11742;53.532;-1.478;2023-03-17T20:45:11;16.90;82.20